Time;durP1;ratioP1;P1;durP2;ratioP2;P2;SDS_P1;SDS_P2;PMS_P1;PMS_P2;Temp;Humidity;BMP_temperature;BMP_pressure;BME280_temperature;BME280_humidity;BME280_pressure;Samples;Min_cycle;Max_cycle;Signal;HPM_P1;HPM_P2
2020/12/26 00:01:08;;;;;;;0.93;0.40;;;3.30;76.40;;;;;;5098780;28;20032;-71
2020/12/26 00:03:34;;;;;;;0.38;0.30;;;3.20;75.40;;;;;;5080552;28;20028;-71
2020/12/26 00:05:59;;;;;;;0.70;0.47;;;3.20;78.40;;;;;;5098321;28;20363;-71
2020/12/26 00:08:25;;;;;;;1.05;0.57;;;3.10;78.70;;;;;;5098345;28;20032;-71
2020/12/26 00:10:53;;;;;;;4.53;0.50;;;3.00;80.60;;;;;;5098565;28;20042;-71
2020/12/26 00:13:18;;;;;;;0.93;0.45;;;3.00;81.80;;;;;;5080391;28;20024;-71
2020/12/26 00:15:44;;;;;;;0.73;0.55;;;2.90;79.70;;;;;;5098206;28;20035;-71
2020/12/26 00:18:10;;;;;;;1.02;0.55;;;2.80;79.80;;;;;;5098274;28;20060;-71
2020/12/26 00:20:38;;;;;;;0.57;0.40;;;2.80;81.90;;;;;;5080237;28;20305;-71
2020/12/26 00:23:03;;;;;;;1.42;0.52;;;2.80;82.40;;;;;;5098128;28;20020;-71
2020/12/26 00:25:29;;;;;;;1.17;0.50;;;2.70;80.70;;;;;;5080003;28;20040;-70
2020/12/26 00:27:58;;;;;;;0.77;0.40;;;2.70;78.20;;;;;;5098024;28;20026;-71
2020/12/26 00:30:23;;;;;;;0.70;0.40;;;2.70;78.00;;;;;;5097678;28;20028;-71
2020/12/26 00:32:49;;;;;;;0.60;0.30;;;2.80;78.50;;;;;;5098326;28;20024;-71
2020/12/26 00:35:15;;;;;;;2.25;0.55;;;2.70;81.70;;;;;;5098032;28;20396;-70
2020/12/26 00:37:40;;;;;;;0.93;0.45;;;2.60;81.60;;;;;;5098093;28;20035;-71
2020/12/26 00:40:06;;;;;;;0.57;0.40;;;2.50;81.40;;;;;;5098021;28;20065;-71
2020/12/26 00:42:34;;;;;;;0.90;0.47;;;2.30;81.60;;;;;;5098579;28;20103;-70
2020/12/26 00:45:00;;;;;;;1.60;0.75;;;2.20;82.10;;;;;;5079689;28;20024;-70
2020/12/26 00:47:25;;;;;;;1.08;0.38;;;2.20;80.30;;;;;;5097630;28;20024;-71
2020/12/26 00:49:51;;;;;;;1.60;0.52;;;2.20;81.40;;;;;;5097628;28;20019;-71
2020/12/26 00:52:16;;;;;;;0.73;0.40;;;2.20;81.70;;;;;;5079534;28;20032;-71
2020/12/26 00:54:42;;;;;;;1.13;0.40;;;2.10;81.40;;;;;;5097346;28;20078;-71
2020/12/26 00:57:08;;;;;;;1.23;0.50;;;2.00;80.10;;;;;;5097419;28;20064;-71
2020/12/26 00:59:33;;;;;;;0.63;0.40;;;2.00;82.20;;;;;;5097382;28;20111;-71
2020/12/26 01:01:59;;;;;;;0.55;0.40;;;2.00;81.30;;;;;;5097403;28;20023;-71
2020/12/26 01:04:24;;;;;;;0.30;0.25;;;2.00;81.70;;;;;;5097579;28;20032;-71
2020/12/26 01:06:57;;;;;;;0.57;0.38;;;1.90;82.90;;;;;;5097252;28;20110;-71
2020/12/26 01:09:23;;;;;;;0.50;0.28;;;1.90;83.80;;;;;;5097283;28;20111;-71
2020/12/26 01:11:50;;;;;;;0.88;0.40;;;1.80;83.20;;;;;;5097155;28;20037;-70
2020/12/26 01:14:16;;;;;;;0.80;0.50;;;1.80;82.90;;;;;;5097407;28;20027;-71
2020/12/26 01:16:42;;;;;;;0.70;0.40;;;1.80;83.80;;;;;;5097189;28;20405;-71
2020/12/26 01:19:08;;;;;;;0.90;0.50;;;1.70;83.70;;;;;;5097015;28;20416;-70
2020/12/26 01:21:33;;;;;;;0.98;0.52;;;1.70;83.80;;;;;;5079127;28;20047;-70
2020/12/26 01:23:59;;;;;;;1.13;0.50;;;1.60;84.00;;;;;;5097378;28;20151;-70
2020/12/26 01:26:25;;;;;;;0.43;0.35;;;1.50;83.70;;;;;;5097044;28;20054;-71
2020/12/26 01:28:50;;;;;;;0.70;0.40;;;1.60;83.70;;;;;;5096922;28;20157;-70
2020/12/26 01:31:16;;;;;;;1.13;0.50;;;1.50;83.00;;;;;;5078822;28;20067;-70
2020/12/26 01:33:43;;;;;;;0.80;0.50;;;1.50;82.30;;;;;;5096993;28;20097;-71
2020/12/26 01:36:14;;;;;;;1.52;0.35;;;1.60;81.10;;;;;;5096834;28;20049;-70
2020/12/26 01:38:40;;;;;;;1.33;0.40;;;1.90;78.70;;;;;;5096862;28;20028;-71
2020/12/26 01:41:06;;;;;;;0.70;0.35;;;2.00;81.00;;;;;;5078907;28;20078;-70
2020/12/26 01:43:31;;;;;;;0.95;0.55;;;2.00;79.10;;;;;;5097099;28;20111;-71
2020/12/26 01:45:57;;;;;;;1.17;0.40;;;2.10;77.20;;;;;;5096760;28;20073;-70
2020/12/26 01:48:25;;;;;;;0.75;0.47;;;2.20;78.00;;;;;;5102949;28;20028;-71
2020/12/26 01:50:51;;;;;;;0.95;0.50;;;2.20;78.50;;;;;;5103439;28;20480;-70
2020/12/26 01:53:19;;;;;;;1.02;0.40;;;2.10;79.90;;;;;;5103831;28;20024;-70
2020/12/26 01:55:47;;;;;;;2.25;0.43;;;2.00;80.90;;;;;;5103498;28;20048;-71
2020/12/26 01:58:14;;;;;;;0.35;0.30;;;1.80;81.80;;;;;;5103470;28;20026;-70
2020/12/26 02:00:41;;;;;;;1.17;0.40;;;1.70;82.60;;;;;;5103476;28;20365;-71
2020/12/26 02:03:08;;;;;;;0.60;0.40;;;1.70;83.50;;;;;;5103450;28;20054;-71
2020/12/26 02:05:33;;;;;;;0.70;0.40;;;1.60;83.10;;;;;;5085639;28;20401;-70
2020/12/26 02:07:59;;;;;;;0.70;0.40;;;1.50;83.20;;;;;;5103381;28;20150;-70
2020/12/26 02:10:25;;;;;;;0.75;0.38;;;1.50;84.60;;;;;;5103276;28;20316;-71
2020/12/26 02:12:51;;;;;;;0.65;0.38;;;1.50;84.10;;;;;;5103492;28;20024;-70
2020/12/26 02:15:17;;;;;;;0.57;0.40;;;1.50;82.50;;;;;;5103495;28;20027;-70
2020/12/26 02:17:42;;;;;;;0.47;0.40;;;1.60;79.00;;;;;;5103272;28;20366;-71
2020/12/26 02:20:09;;;;;;;0.55;0.40;;;1.80;78.00;;;;;;5085292;28;20026;-70
2020/12/26 02:22:34;;;;;;;0.60;0.40;;;2.00;73.60;;;;;;5085166;28;20070;-70
2020/12/26 02:25:00;;;;;;;0.63;0.40;;;2.30;72.50;;;;;;5103160;28;20032;-70
2020/12/26 02:27:26;;;;;;;0.75;0.30;;;2.40;73.00;;;;;;5103189;28;20016;-71
2020/12/26 02:29:52;;;;;;;0.82;0.40;;;2.50;72.80;;;;;;5085132;28;20016;-71
2020/12/26 02:32:17;;;;;;;0.60;0.50;;;2.40;75.50;;;;;;5102916;28;20064;-70
2020/12/26 02:34:43;;;;;;;0.80;0.40;;;2.30;76.70;;;;;;5103083;28;20020;-70
2020/12/26 02:37:09;;;;;;;0.82;0.30;;;2.10;77.50;;;;;;5103050;28;20031;-70
2020/12/26 02:39:37;;;;;;;0.50;0.35;;;2.10;78.90;;;;;;5103375;28;20099;-70
2020/12/26 02:42:03;;;;;;;0.60;0.30;;;2.00;78.20;;;;;;5085049;28;20027;-70
2020/12/26 02:44:28;;;;;;;0.60;0.40;;;2.10;78.00;;;;;;5103042;28;20020;-70
2020/12/26 02:46:54;;;;;;;0.68;0.47;;;2.10;78.00;;;;;;5103561;28;20031;-71
2020/12/26 02:49:20;;;;;;;0.60;0.40;;;2.00;79.90;;;;;;5103243;28;20031;-71
2020/12/26 02:51:45;;;;;;;0.50;0.40;;;1.90;81.60;;;;;;5102965;28;20035;-70
2020/12/26 02:54:12;;;;;;;0.95;0.50;;;1.70;80.60;;;;;;5103211;28;20020;-71
2020/12/26 02:56:41;;;;;;;0.90;0.40;;;1.70;81.70;;;;;;5102867;28;20024;-71
2020/12/26 02:59:07;;;;;;;0.55;0.40;;;1.60;80.50;;;;;;5081779;28;20024;-70
2020/12/26 03:01:33;;;;;;;0.30;0.30;;;1.80;74.70;;;;;;5081785;28;20020;-70
2020/12/26 03:03:59;;;;;;;0.20;0.20;;;1.90;73.70;;;;;;5099701;28;20055;-70
2020/12/26 03:06:25;;;;;;;0.63;0.30;;;2.30;67.40;;;;;;5099630;28;20124;-70
2020/12/26 03:08:50;;;;;;;0.85;0.40;;;2.80;67.80;;;;;;5099574;28;20016;-70
2020/12/26 03:11:16;;;;;;;0.65;0.45;;;2.90;73.30;;;;;;5099374;28;20301;-71
2020/12/26 03:13:42;;;;;;;0.88;0.50;;;2.70;75.10;;;;;;5099438;28;20024;-71
2020/12/26 03:16:07;;;;;;;0.75;0.40;;;2.50;76.00;;;;;;5099377;28;20024;-70
2020/12/26 03:18:33;;;;;;;0.43;0.20;;;2.40;76.60;;;;;;5099290;28;20073;-70
2020/12/26 03:20:58;;;;;;;0.50;0.30;;;2.60;68.00;;;;;;5099345;28;20039;-70
2020/12/26 03:23:24;;;;;;;0.95;0.22;;;3.10;67.20;;;;;;5099558;28;20032;-70
2020/12/26 03:25:52;;;;;;;0.77;0.38;;;3.10;71.30;;;;;;5099242;28;20043;-70
2020/12/26 03:28:18;;;;;;;1.25;0.70;;;3.00;72.30;;;;;;5098919;28;20102;-70
2020/12/26 03:30:46;;;;;;;0.43;0.30;;;2.80;74.10;;;;;;5099051;28;20148;-70
2020/12/26 03:33:11;;;;;;;0.30;0.20;;;2.60;71.80;;;;;;5099297;28;20427;-70
2020/12/26 03:35:37;;;;;;;0.50;0.22;;;3.30;61.70;;;;;;5099000;28;20032;-70
2020/12/26 03:38:02;;;;;;;0.43;0.20;;;3.50;64.50;;;;;;5081060;28;20031;-70
2020/12/26 03:40:28;;;;;;;0.57;0.40;;;3.70;59.60;;;;;;5099013;28;20028;-70
2020/12/26 03:42:54;;;;;;;0.20;0.20;;;3.70;66.90;;;;;;5081332;28;20315;-70
2020/12/26 03:45:21;;;;;;;0.52;0.32;;;3.50;62.20;;;;;;5098851;28;20035;-70
2020/12/26 03:47:47;;;;;;;0.43;0.20;;;3.50;66.50;;;;;;5098855;28;20366;-70
2020/12/26 03:50:12;;;;;;;0.63;0.30;;;3.40;62.60;;;;;;5098684;28;20036;-70
2020/12/26 03:52:38;;;;;;;0.20;0.20;;;3.30;65.80;;;;;;5098647;28;20367;-70
2020/12/26 03:55:04;;;;;;;0.22;0.22;;;3.40;58.90;;;;;;5098630;28;20031;-70
2020/12/26 03:57:29;;;;;;;0.22;0.20;;;3.50;60.00;;;;;;5098532;28;20034;-71
2020/12/26 03:59:55;;;;;;;1.23;0.40;;;3.50;67.80;;;;;;5098608;28;20054;-70
2020/12/26 04:02:21;;;;;;;0.73;0.40;;;3.10;71.00;;;;;;5080591;28;20035;-70
2020/12/26 04:04:46;;;;;;;0.35;0.28;;;2.90;71.60;;;;;;5098478;28;20035;-70
2020/12/26 04:07:12;;;;;;;0.73;0.38;;;2.90;66.80;;;;;;5098437;28;20106;-70
2020/12/26 04:09:37;;;;;;;0.60;0.32;;;2.90;69.80;;;;;;5098074;28;20116;-70
2020/12/26 04:12:03;;;;;;;0.82;0.40;;;2.90;71.10;;;;;;5098490;28;20051;-70
2020/12/26 04:14:32;;;;;;;0.20;0.20;;;2.70;72.50;;;;;;5098235;28;20081;-70
2020/12/26 04:16:58;;;;;;;0.30;0.20;;;2.90;63.30;;;;;;5098835;28;20093;-70
2020/12/26 04:19:24;;;;;;;0.80;0.40;;;3.00;68.60;;;;;;5098481;28;20424;-70
2020/12/26 04:21:50;;;;;;;0.52;0.40;;;2.80;72.00;;;;;;5080201;28;20031;-70
2020/12/26 04:24:16;;;;;;;0.70;0.40;;;2.80;67.20;;;;;;5098375;28;20360;-70
2020/12/26 04:26:41;;;;;;;0.30;0.25;;;2.90;70.80;;;;;;5098346;28;20038;-70
2020/12/26 04:29:08;;;;;;;1.02;0.43;;;2.80;72.00;;;;;;5098028;28;20035;-70
2020/12/26 04:31:34;;;;;;;1.08;0.98;;;2.70;72.20;;;;;;5079829;28;20396;-70
2020/12/26 04:34:02;;;;;;;0.50;0.30;;;2.70;73.70;;;;;;5097813;28;20055;-70
2020/12/26 04:36:27;;;;;;;0.70;0.40;;;2.40;73.60;;;;;;5097904;28;20038;-70
2020/12/26 04:38:53;;;;;;;0.40;0.30;;;2.30;73.90;;;;;;5097808;28;20020;-70
2020/12/26 04:41:19;;;;;;;0.50;0.40;;;2.20;74.40;;;;;;5098075;28;20030;-70
2020/12/26 04:43:46;;;;;;;0.30;0.30;;;2.10;73.20;;;;;;5098041;28;20024;-70
2020/12/26 04:46:18;;;;;;;0.75;0.30;;;2.10;72.80;;;;;;5097664;28;20418;-70
2020/12/26 04:48:53;;;;;;;0.40;0.30;;;2.10;72.30;;;;;;5097880;28;20073;-70
2020/12/26 04:51:20;;;;;;;0.47;0.30;;;2.20;73.70;;;;;;5097712;28;20052;-70
2020/12/26 04:53:51;;;;;;;0.20;0.20;;;2.20;73.10;;;;;;5097698;28;20028;-70
2020/12/26 04:56:20;;;;;;;0.63;0.38;;;2.10;74.00;;;;;;5097521;28;20028;-70
2020/12/26 04:58:48;;;;;;;0.65;0.30;;;2.00;74.80;;;;;;5079482;28;20103;-70
2020/12/26 05:01:16;;;;;;;0.30;0.30;;;1.90;76.20;;;;;;5097429;28;20028;-70
2020/12/26 05:03:44;;;;;;;0.63;0.40;;;1.80;76.50;;;;;;5097529;28;20016;-70
2020/12/26 05:06:12;;;;;;;0.52;0.20;;;1.70;75.10;;;;;;5097339;28;20336;-70
2020/12/26 05:08:38;;;;;;;0.90;0.40;;;1.90;73.10;;;;;;5097295;28;20153;-70
2020/12/26 05:11:04;;;;;;;0.50;0.30;;;1.90;73.30;;;;;;5097256;28;20379;-70
2020/12/26 05:13:29;;;;;;;0.30;0.20;;;2.10;72.30;;;;;;5097264;28;20453;-70
2020/12/26 05:15:55;;;;;;;0.60;0.40;;;2.10;72.50;;;;;;5097082;28;20397;-70
2020/12/26 05:18:22;;;;;;;0.40;0.30;;;2.10;73.10;;;;;;5097373;28;20050;-70
2020/12/26 05:20:48;;;;;;;0.45;0.30;;;2.00;72.70;;;;;;5097395;28;20035;-70
2020/12/26 05:23:18;;;;;;;0.80;0.60;;;2.00;74.10;;;;;;5096487;28;20412;-70
2020/12/26 05:25:45;;;;;;;2.45;1.90;;;1.90;73.80;;;;;;5096985;28;20058;-70
2020/12/26 05:28:10;;;;;;;4.00;1.50;;;1.90;73.90;;;;;;5097007;28;20089;-70
2020/12/26 05:30:37;;;;;;;2.20;0.65;;;1.80;74.00;;;;;;5096670;28;20056;-71
2020/12/26 05:33:07;;;;;;;0.50;0.30;;;1.70;74.60;;;;;;5097255;28;20069;-70
2020/12/26 05:35:52;;;;;;;0.82;0.55;;;1.60;75.80;;;;;;5079071;28;20025;-70
2020/12/26 05:38:19;;;;;;;0.40;0.25;;;1.60;75.50;;;;;;5096882;28;20048;-70
2020/12/26 05:40:47;;;;;;;0.75;0.30;;;1.50;74.50;;;;;;5096836;28;20328;-70
2020/12/26 05:43:18;;;;;;;0.40;0.30;;;1.60;73.90;;;;;;5096929;28;20077;-70
2020/12/26 05:45:45;;;;;;;3.80;1.75;;;1.60;74.80;;;;;;5096896;28;20369;-70
2020/12/26 05:48:12;;;;;;;5.85;2.10;;;1.50;75.40;;;;;;5096697;28;20408;-70
2020/12/26 05:50:42;;;;;;;1.48;0.57;;;1.60;71.70;;;;;;5096656;28;20408;-70
2020/12/26 05:53:11;;;;;;;0.68;0.40;;;1.70;72.20;;;;;;5097073;28;20050;-70
2020/12/26 05:55:45;;;;;;;0.30;0.30;;;1.70;72.60;;;;;;5096662;28;20471;-70
2020/12/26 05:58:12;;;;;;;1.30;0.77;;;1.70;71.20;;;;;;5096740;28;20047;-70
2020/12/26 06:00:42;;;;;;;1.30;0.40;;;1.60;74.40;;;;;;5096697;28;20032;-70
2020/12/26 06:03:23;;;;;;;0.47;0.30;;;1.50;72.80;;;;;;5096871;28;20020;-70
2020/12/26 06:05:53;;;;;;;0.40;0.30;;;1.40;74.40;;;;;;5096599;28;20046;-70
2020/12/26 06:08:20;;;;;;;0.85;0.50;;;1.30;75.80;;;;;;5096643;28;20032;-70
2020/12/26 06:10:57;;;;;;;0.47;0.30;;;1.30;76.50;;;;;;5078659;28;20323;-70
2020/12/26 06:13:27;;;;;;;0.60;0.30;;;1.20;74.90;;;;;;5096581;28;20026;-70
2020/12/26 06:15:57;;;;;;;1.27;0.40;;;1.20;76.50;;;;;;5096554;28;20415;-70
2020/12/26 06:18:24;;;;;;;0.63;0.40;;;1.10;77.50;;;;;;5096672;28;20039;-70
2020/12/26 06:20:52;;;;;;;0.80;0.50;;;1.00;77.50;;;;;;5096502;28;20070;-70
2020/12/26 06:23:24;;;;;;;0.30;0.30;;;1.00;78.00;;;;;;5096601;28;20047;-70
2020/12/26 06:25:52;;;;;;;0.50;0.30;;;1.00;77.70;;;;;;5096457;28;20029;-70
2020/12/26 06:28:17;;;;;;;0.50;0.30;;;1.00;78.50;;;;;;5096409;28;20085;-70
2020/12/26 06:30:43;;;;;;;0.55;0.30;;;0.90;78.30;;;;;;5096264;28;20047;-71
2020/12/26 06:33:09;;;;;;;0.43;0.30;;;1.00;78.80;;;;;;5097563;28;20024;-70
2020/12/26 06:35:40;;;;;;;0.80;0.50;;;1.00;78.40;;;;;;5100175;28;20324;-70
2020/12/26 06:38:16;;;;;;;0.88;0.40;;;0.90;77.40;;;;;;5100427;28;20056;-70
2020/12/26 06:40:58;;;;;;;0.50;0.40;;;0.90;76.40;;;;;;5100419;28;20293;-70
2020/12/26 06:43:39;;;;;;;0.60;0.30;;;0.90;79.60;;;;;;5100130;28;20024;-70
2020/12/26 06:46:29;;;;;;;1.05;0.40;;;0.90;77.20;;;;;;5081952;28;20400;-70
2020/12/26 06:48:57;;;;;;;0.60;0.30;;;0.90;77.00;;;;;;5099117;28;20050;-70
2020/12/26 06:51:22;;;;;;;0.52;0.38;;;1.20;74.10;;;;;;5100094;28;20016;-70
2020/12/26 06:53:49;;;;;;;0.50;0.30;;;1.30;75.80;;;;;;5100096;28;20315;-70
2020/12/26 06:59:06;;;;;;;0.30;0.30;;;1.20;77.30;;;;;;5099770;28;20107;-70
2020/12/26 07:01:33;;;;;;;0.57;0.40;;;1.10;76.60;;;;;;5099776;28;20066;-70
2020/12/26 07:04:10;;;;;;;0.60;0.40;;;1.10;78.60;;;;;;5099900;28;20016;-70
2020/12/26 07:06:40;;;;;;;0.93;0.43;;;1.00;79.00;;;;;;5099912;28;20032;-70
2020/12/26 07:09:07;;;;;;;0.32;0.30;;;1.00;77.00;;;;;;5099873;28;20020;-70
2020/12/26 07:11:48;;;;;;;0.40;0.30;;;1.00;78.20;;;;;;5099433;28;20108;-71
2020/12/26 07:14:33;;;;;;;0.63;0.30;;;1.00;78.50;;;;;;5099522;28;20024;-70
2020/12/26 07:17:04;;;;;;;0.40;0.30;;;1.00;78.70;;;;;;5099763;28;20051;-70
2020/12/26 07:19:44;;;;;;;0.20;0.20;;;1.00;78.20;;;;;;5099384;28;20495;-70
2020/12/26 07:22:23;;;;;;;0.35;0.30;;;0.90;78.90;;;;;;5099378;28;20028;-70
2020/12/26 07:24:53;;;;;;;0.50;0.30;;;0.90;79.50;;;;;;5099742;28;20032;-70
2020/12/26 07:27:37;;;;;;;0.30;0.30;;;0.80;79.30;;;;;;5099457;28;20036;-70
2020/12/26 07:30:10;;;;;;;0.75;0.50;;;0.70;80.60;;;;;;5099310;28;20027;-70
2020/12/26 07:32:38;;;;;;;0.80;0.45;;;0.70;80.30;;;;;;5098918;28;20089;-70
2020/12/26 07:35:28;;;;;;;0.80;0.47;;;0.70;80.40;;;;;;5099020;28;20077;-70
2020/12/26 07:37:57;;;;;;;0.47;0.32;;;0.80;80.90;;;;;;5081100;28;20020;-70
2020/12/26 07:40:36;;;;;;;0.50;0.40;;;0.80;80.10;;;;;;5081102;28;20032;-70
2020/12/26 07:43:05;;;;;;;1.17;0.43;;;0.90;80.60;;;;;;5099088;28;20062;-70
2020/12/26 07:45:32;;;;;;;0.68;0.45;;;0.90;81.60;;;;;;5098160;28;20021;-70
2020/12/26 07:48:00;;;;;;;2.35;0.40;;;0.90;81.30;;;;;;5098848;28;20095;-70
2020/12/26 07:50:31;;;;;;;0.60;0.40;;;0.90;78.70;;;;;;5080782;28;20024;-70
2020/12/26 07:52:59;;;;;;;1.17;0.50;;;0.90;76.60;;;;;;5098727;28;20096;-70
2020/12/26 07:55:27;;;;;;;0.50;0.30;;;1.00;77.60;;;;;;5098894;28;20117;-70
2020/12/26 07:58:06;;;;;;;0.77;0.40;;;1.10;77.40;;;;;;5098661;28;20020;-70
2020/12/26 08:00:35;;;;;;;1.10;0.40;;;1.30;78.20;;;;;;5098952;28;20404;-70
2020/12/26 08:03:03;;;;;;;0.30;0.30;;;1.40;78.30;;;;;;5098830;28;20080;-70
2020/12/26 08:05:33;;;;;;;0.65;0.40;;;1.60;73.20;;;;;;5098471;28;20023;-70
2020/12/26 08:07:59;;;;;;;0.40;0.30;;;1.70;74.10;;;;;;5098420;28;20024;-70
2020/12/26 08:10:26;;;;;;;0.70;0.30;;;1.90;71.30;;;;;;5098417;28;20479;-71
2020/12/26 08:12:53;;;;;;;0.70;0.38;;;2.10;71.80;;;;;;5098641;28;20047;-70
2020/12/26 08:15:24;;;;;;;0.80;0.30;;;2.20;72.10;;;;;;5098252;28;20016;-71
2020/12/26 08:17:55;;;;;;;0.50;0.30;;;2.40;72.40;;;;;;5098415;28;20023;-71
2020/12/26 08:20:22;;;;;;;0.47;0.30;;;2.40;71.60;;;;;;5080256;28;20324;-70
2020/12/26 08:22:48;;;;;;;0.93;0.30;;;2.70;69.70;;;;;;5098132;28;20431;-70
2020/12/26 08:25:16;;;;;;;0.77;0.32;;;2.80;71.60;;;;;;5098329;28;20032;-71
2020/12/26 08:27:42;;;;;;;0.63;0.38;;;2.80;70.70;;;;;;5098074;28;20096;-70
2020/12/26 08:30:12;;;;;;;0.85;0.57;;;2.90;68.30;;;;;;5080038;28;20442;-70
2020/12/26 08:33:05;;;;;;;0.95;0.43;;;2.90;68.10;;;;;;5079933;28;20105;-70
2020/12/26 08:35:33;;;;;;;0.93;0.52;;;3.00;74.30;;;;;;5098060;28;20020;-70
2020/12/26 08:38:20;;;;;;;1.02;0.40;;;3.20;75.60;;;;;;5079907;28;20038;-70
2020/12/26 08:40:54;;;;;;;0.80;0.45;;;3.30;71.10;;;;;;5098080;28;20077;-70
2020/12/26 08:43:19;;;;;;;1.02;0.40;;;3.50;71.20;;;;;;5097919;28;20206;-71
2020/12/26 08:45:45;;;;;;;0.68;0.50;;;3.60;74.70;;;;;;5097973;28;20019;-70
2020/12/26 08:48:22;;;;;;;0.57;0.40;;;3.80;70.60;;;;;;5097676;28;20032;-71
2020/12/26 08:51:02;;;;;;;0.80;0.50;;;3.90;71.00;;;;;;5097470;28;20024;-71
2020/12/26 08:53:27;;;;;;;1.35;0.80;;;4.00;67.20;;;;;;5097917;28;20028;-70
2020/12/26 08:55:56;;;;;;;1.35;0.90;;;4.10;66.90;;;;;;5097236;28;20050;-71
2020/12/26 08:58:30;;;;;;;1.17;0.70;;;4.10;65.10;;;;;;5096918;28;20396;-71
2020/12/26 09:01:03;;;;;;;1.30;0.85;;;4.20;64.20;;;;;;5097456;28;20427;-71
2020/12/26 09:03:32;;;;;;;1.73;1.38;;;4.20;65.40;;;;;;5079482;28;20408;-70
2020/12/26 09:06:00;;;;;;;1.30;0.73;;;4.00;65.70;;;;;;5097359;28;20385;-71
2020/12/26 09:08:31;;;;;;;0.90;0.50;;;4.00;68.10;;;;;;5097320;28;20035;-71
2020/12/26 09:11:06;;;;;;;1.55;0.50;;;4.20;69.40;;;;;;5097511;28;20028;-71
2020/12/26 09:13:35;;;;;;;1.33;0.90;;;4.40;69.50;;;;;;5097249;28;20424;-71
2020/12/26 09:16:13;;;;;;;1.27;0.63;;;4.50;70.30;;;;;;5097208;28;20016;-71
2020/12/26 09:18:39;;;;;;;0.95;0.50;;;4.50;69.40;;;;;;5097191;28;20312;-71
2020/12/26 09:21:06;;;;;;;1.85;0.55;;;4.50;68.20;;;;;;5097397;28;20043;-71
2020/12/26 09:23:37;;;;;;;0.95;0.40;;;4.50;66.10;;;;;;5097181;28;20024;-71
2020/12/26 09:26:17;;;;;;;0.70;0.32;;;4.70;67.70;;;;;;5079187;28;20334;-71
2020/12/26 09:28:59;;;;;;;0.60;0.38;;;4.90;61.00;;;;;;5097104;28;20430;-71
2020/12/26 09:31:26;;;;;;;0.80;0.52;;;5.00;66.60;;;;;;5096872;28;20040;-71
2020/12/26 09:33:54;;;;;;;0.73;0.40;;;5.10;61.80;;;;;;5096993;28;20024;-71
2020/12/26 09:36:21;;;;;;;0.70;0.40;;;5.30;71.00;;;;;;5096979;28;20027;-71
2020/12/26 09:38:51;;;;;;;1.60;0.60;;;5.60;66.50;;;;;;5096872;28;20036;-71
2020/12/26 09:41:21;;;;;;;0.63;0.50;;;6.30;64.70;;;;;;5096862;28;20106;-71
2020/12/26 09:43:50;;;;;;;0.90;0.68;;;7.50;60.60;;;;;;5079014;28;20032;-71
2020/12/26 09:46:17;;;;;;;0.93;0.60;;;8.80;61.90;;;;;;5097147;28;20103;-71
2020/12/26 09:48:43;;;;;;;1.65;0.70;;;9.90;58.80;;;;;;5096803;28;20020;-71
2020/12/26 09:51:26;;;;;;;0.82;0.60;;;10.70;51.20;;;;;;5096745;28;20032;-71
2020/12/26 09:53:59;;;;;;;0.77;0.30;;;11.00;54.70;;;;;;5097170;28;20020;-71
2020/12/26 09:56:26;;;;;;;0.80;0.40;;;11.50;51.10;;;;;;5097359;28;20059;-71
2020/12/26 09:58:52;;;;;;;1.48;0.85;;;12.00;50.10;;;;;;5096663;28;20028;-71
2020/12/26 10:01:19;;;;;;;1.35;0.60;;;12.60;48.20;;;;;;5096973;28;20039;-71
2020/12/26 10:03:46;;;;;;;0.38;0.30;;;12.90;45.70;;;;;;5096912;28;20111;-71
2020/12/26 10:06:14;;;;;;;0.95;0.50;;;12.60;46.70;;;;;;5078550;28;20112;-71
2020/12/26 10:08:42;;;;;;;1.25;0.70;;;12.50;44.20;;;;;;5091018;28;20137;-71
2020/12/26 10:11:15;;;;;;;1.42;0.80;;;12.70;46.00;;;;;;5093513;28;20396;-71
2020/12/26 10:13:42;;;;;;;1.17;0.70;;;12.90;46.70;;;;;;5100720;28;20471;-71
2020/12/26 10:16:08;;;;;;;1.27;0.80;;;13.30;49.00;;;;;;5100818;28;20358;-71
2020/12/26 10:18:35;;;;;;;1.33;0.70;;;13.40;45.50;;;;;;5100581;28;20070;-71
2020/12/26 10:21:01;;;;;;;1.83;0.70;;;13.60;45.80;;;;;;5100459;28;20056;-72
2020/12/26 10:23:27;;;;;;;1.13;0.70;;;14.00;43.40;;;;;;5100821;28;20028;-72
2020/12/26 10:25:53;;;;;;;1.02;0.60;;;14.00;42.80;;;;;;5100348;28;20028;-71
2020/12/26 10:28:22;;;;;;;1.70;1.00;;;13.70;43.20;;;;;;5100496;28;20098;-71
2020/12/26 10:30:48;;;;;;;1.05;0.73;;;13.60;46.50;;;;;;5100076;28;20451;-72
2020/12/26 10:33:14;;;;;;;1.00;0.63;;;13.40;43.80;;;;;;5082379;28;20021;-72
2020/12/26 10:35:41;;;;;;;0.68;0.50;;;13.50;43.70;;;;;;5100235;28;20031;-72
2020/12/26 10:38:06;;;;;;;1.52;0.70;;;13.30;43.70;;;;;;5100141;28;20053;-72
2020/12/26 10:40:32;;;;;;;0.93;0.60;;;13.20;40.80;;;;;;5082144;28;20024;-72
2020/12/26 10:42:58;;;;;;;1.08;0.60;;;13.10;43.50;;;;;;5100124;28;20361;-72
2020/12/26 10:45:24;;;;;;;0.77;0.60;;;13.10;43.50;;;;;;5082069;28;20024;-72
2020/12/26 10:47:52;;;;;;;1.52;0.75;;;13.40;41.60;;;;;;5100238;28;20479;-72
2020/12/26 10:50:18;;;;;;;1.60;0.90;;;13.40;41.10;;;;;;5099857;28;20420;-71
2020/12/26 10:52:44;;;;;;;1.40;0.80;;;13.20;40.40;;;;;;5081875;28;20129;-71
2020/12/26 10:55:17;;;;;;;1.05;0.70;;;13.00;42.20;;;;;;5100058;28;20036;-72
2020/12/26 10:57:43;;;;;;;1.65;1.10;;;13.20;41.70;;;;;;5099773;28;20420;-72
2020/12/26 11:00:13;;;;;;;1.27;0.77;;;13.30;40.50;;;;;;5099785;28;20020;-72
2020/12/26 11:02:38;;;;;;;1.23;0.60;;;13.20;43.60;;;;;;5099710;28;20120;-72
2020/12/26 11:05:05;;;;;;;1.13;0.70;;;13.30;40.10;;;;;;5099634;28;20102;-72
2020/12/26 11:07:32;;;;;;;1.95;0.80;;;13.20;39.00;;;;;;5099701;28;20024;-72
2020/12/26 11:10:00;;;;;;;1.40;1.00;;;13.10;38.50;;;;;;5099728;28;20032;-72
2020/12/26 11:12:26;;;;;;;1.25;0.70;;;12.80;37.40;;;;;;5099392;28;20024;-71
2020/12/26 11:14:55;;;;;;;1.08;0.70;;;12.70;36.90;;;;;;5099645;28;20035;-72
2020/12/26 11:17:20;;;;;;;0.98;0.60;;;12.90;36.50;;;;;;5099518;28;20016;-72
2020/12/26 11:19:46;;;;;;;0.95;0.70;;;13.20;35.40;;;;;;5098315;28;20024;-72
2020/12/26 11:22:12;;;;;;;1.10;0.70;;;13.10;39.50;;;;;;5099354;28;20028;-72
2020/12/26 11:24:37;;;;;;;5.20;1.35;;;13.10;39.30;;;;;;5099711;28;20066;-72
2020/12/26 11:27:03;;;;;;;1.65;0.90;;;13.30;42.40;;;;;;5081384;28;20443;-71
2020/12/26 11:29:30;;;;;;;1.83;1.20;;;13.40;39.70;;;;;;5099285;28;20383;-71
2020/12/26 11:31:59;;;;;;;2.40;1.50;;;13.40;43.80;;;;;;5098910;28;20044;-72
2020/12/26 11:34:25;;;;;;;2.58;2.05;;;13.50;44.00;;;;;;5099096;28;20020;-71
2020/12/26 11:36:51;;;;;;;2.33;1.65;;;13.60;42.00;;;;;;5099126;28;20024;-72
2020/12/26 11:39:17;;;;;;;1.67;1.13;;;13.70;41.90;;;;;;5098327;28;20043;-72
2020/12/26 11:41:42;;;;;;;1.45;1.10;;;13.60;43.80;;;;;;5098983;28;20316;-72
2020/12/26 11:44:08;;;;;;;1.92;1.13;;;13.50;42.00;;;;;;5098997;28;20038;-72
2020/12/26 11:46:36;;;;;;;1.80;1.20;;;13.60;42.40;;;;;;5098934;28;20024;-72
2020/12/26 11:49:04;;;;;;;1.50;1.17;;;13.50;40.50;;;;;;5098814;28;20032;-72
2020/12/26 11:51:30;;;;;;;1.55;0.93;;;13.30;44.10;;;;;;5098670;28;20028;-72
2020/12/26 11:53:56;;;;;;;1.80;1.20;;;12.90;43.60;;;;;;5099077;28;20028;-72
2020/12/26 11:56:22;;;;;;;1.98;1.30;;;13.00;44.10;;;;;;5098735;28;20024;-71
2020/12/26 11:58:48;;;;;;;1.75;1.10;;;12.90;45.60;;;;;;5098705;28;20021;-72
2020/12/26 12:01:18;;;;;;;2.92;0.80;;;13.00;42.50;;;;;;5080626;28;20046;-72
2020/12/26 12:03:47;;;;;;;1.60;1.00;;;12.90;39.70;;;;;;5098705;28;20035;-71
2020/12/26 12:06:17;;;;;;;2.75;1.15;;;12.50;40.90;;;;;;5098469;28;20024;-71
2020/12/26 12:08:43;;;;;;;2.35;1.58;;;12.30;42.10;;;;;;5099006;28;20324;-71
2020/12/26 12:11:15;;;;;;;1.63;1.15;;;12.10;43.20;;;;;;5098371;28;20028;-69
2020/12/26 12:13:44;;;;;;;2.22;1.10;;;12.30;44.30;;;;;;5080435;28;20038;-71
2020/12/26 12:16:13;;;;;;;2.80;1.10;;;12.10;40.70;;;;;;5098299;28;20026;-71
2020/12/26 12:18:39;;;;;;;2.65;1.58;;;12.20;44.60;;;;;;5098370;28;20094;-72
2020/12/26 12:21:08;;;;;;;2.03;1.30;;;12.30;46.40;;;;;;5098477;28;20024;-72
2020/12/26 12:23:34;;;;;;;2.40;1.30;;;12.20;45.60;;;;;;5098665;28;20035;-71
2020/12/26 12:25:59;;;;;;;2.72;1.23;;;12.10;48.10;;;;;;5098066;28;20028;-71
2020/12/26 12:28:27;;;;;;;1.42;1.10;;;12.20;45.20;;;;;;5098159;28;20028;-71
2020/12/26 12:30:53;;;;;;;2.22;1.23;;;12.10;45.50;;;;;;5097526;28;20424;-71
2020/12/26 12:33:19;;;;;;;1.73;1.10;;;12.00;42.60;;;;;;5098136;28;20022;-71
2020/12/26 12:35:47;;;;;;;1.70;1.17;;;12.00;46.10;;;;;;5098145;28;20024;-72
2020/12/26 12:38:13;;;;;;;2.65;0.90;;;12.20;43.70;;;;;;5097884;28;20024;-71
2020/12/26 12:40:41;;;;;;;2.35;1.25;;;12.00;44.60;;;;;;5079871;28;20028;-72
2020/12/26 12:43:09;;;;;;;1.42;0.98;;;11.90;44.60;;;;;;5097989;28;20016;-71
2020/12/26 12:45:34;;;;;;;3.33;1.30;;;11.80;45.00;;;;;;5097625;28;20024;-71
2020/12/26 12:48:00;;;;;;;2.05;1.25;;;11.50;43.30;;;;;;5097706;28;20123;-71
2020/12/26 12:50:26;;;;;;;2.00;1.38;;;11.30;43.40;;;;;;5097927;28;20024;-71
2020/12/26 12:52:52;;;;;;;1.65;1.00;;;11.00;44.20;;;;;;5097842;28;20024;-71
2020/12/26 12:55:18;;;;;;;2.45;1.33;;;10.80;41.60;;;;;;5097643;28;20024;-71
2020/12/26 12:57:43;;;;;;;1.50;1.17;;;10.50;47.60;;;;;;5097140;28;20024;-71
2020/12/26 13:00:09;;;;;;;2.58;1.40;;;10.20;44.90;;;;;;5097567;28;20028;-71
2020/12/26 13:02:35;;;;;;;2.25;1.27;;;9.80;47.40;;;;;;5097473;28;20404;-71